createdAt,value
2019-04-27T00:00:00.584Z,97.00
2019-04-27T00:01:00.551Z,91.60
2019-04-27T00:02:00.526Z,94.60
2019-04-27T00:03:01.961Z,95.10
2019-04-27T00:04:00.467Z,93.20
2019-04-27T00:05:00.441Z,93.60
2019-04-27T00:06:00.413Z,91.10
2019-04-27T00:07:00.385Z,88.60
2019-04-27T00:08:00.357Z,87.90
2019-04-27T00:09:00.327Z,86.50
2019-04-27T00:10:00.304Z,88.50
2019-04-27T00:11:06.841Z,95.60
2019-04-27T00:12:00.243Z,95.90
2019-04-27T00:13:02.270Z,88.90
2019-04-27T00:14:00.189Z,90.20
2019-04-27T00:15:00.163Z,88.40
2019-04-27T00:16:05.552Z,89.40
2019-04-27T00:17:00.105Z,87.60
2019-04-27T00:18:00.077Z,89.70
2019-04-27T00:19:00.047Z,89.20
2019-04-27T00:20:00.019Z,90.40
2019-04-27T00:20:59.998Z,91.20
2019-04-27T00:21:59.962Z,91.30
2019-04-27T00:22:59.948Z,87.90
2019-04-27T00:23:59.908Z,89.50
2019-04-27T00:24:59.880Z,96.80
2019-04-27T00:25:59.851Z,92.10
2019-04-27T00:26:59.824Z,99.20
2019-04-27T00:27:59.796Z,91.60
2019-04-27T00:28:59.767Z,101.00
2019-04-27T00:29:59.739Z,96.00
2019-04-27T00:30:59.715Z,101.40
2019-04-27T00:31:59.695Z,96.20
2019-04-27T00:32:59.656Z,88.90
2019-04-27T00:33:59.627Z,85.10
2019-04-27T00:34:59.600Z,84.00
2019-04-27T00:35:59.574Z,75.30
2019-04-27T00:36:59.545Z,75.40
2019-04-27T00:37:59.515Z,83.90
2019-04-27T00:38:59.508Z,84.10
2019-04-27T00:39:59.459Z,87.50
2019-04-27T00:40:59.432Z,82.50
2019-04-27T00:41:59.403Z,83.80
2019-04-27T00:42:59.383Z,79.80
2019-04-27T00:43:59.348Z,82.30
2019-04-27T00:44:59.320Z,84.00
2019-04-27T00:45:59.292Z,79.40
2019-04-27T00:46:59.265Z,79.30
2019-04-27T00:47:59.848Z,84.20
2019-04-27T00:48:59.209Z,84.00
2019-04-27T00:49:59.186Z,87.50
2019-04-27T00:50:59.164Z,89.10
2019-04-27T00:51:59.133Z,85.20
2019-04-27T00:52:59.099Z,87.20
2019-04-27T00:53:59.068Z,89.70
2019-04-27T00:54:59.040Z,92.20
2019-04-27T00:55:59.011Z,87.00
2019-04-27T00:56:58.988Z,88.10
2019-04-27T00:57:59.149Z,99.90
2019-04-27T00:58:58.931Z,93.60
2019-04-27T00:59:58.900Z,94.70
2019-04-27T01:00:58.872Z,95.10
2019-04-27T01:01:58.844Z,96.80
2019-04-27T01:02:58.816Z,99.70
2019-04-27T01:03:58.788Z,103.30
2019-04-27T01:04:58.761Z,103.90
2019-04-27T01:05:58.732Z,101.20
2019-04-27T01:06:58.704Z,100.20
2019-04-27T01:07:58.681Z,106.20
2019-04-27T01:08:58.648Z,108.40
2019-04-27T01:09:58.619Z,116.80
2019-04-27T01:10:58.590Z,115.90
2019-04-27T01:11:58.565Z,116.70
2019-04-27T01:12:58.535Z,121.10
2019-04-27T01:13:58.506Z,120.40
2019-04-27T01:14:58.479Z,123.20
2019-04-27T01:15:58.455Z,121.70
2019-04-27T01:16:59.852Z,123.30
2019-04-27T01:18:11.599Z,131.40
2019-04-27T01:18:58.969Z,133.60
2019-04-27T01:19:59.563Z,132.00
2019-04-27T01:20:59.104Z,141.90
2019-04-27T01:21:58.625Z,147.10
2019-04-27T01:22:59.465Z,142.80
2019-04-27T01:23:58.894Z,153.90
2019-04-27T01:24:59.438Z,151.10
2019-04-27T01:25:59.715Z,154.60
2019-04-27T01:26:58.364Z,146.90
2019-04-27T01:27:59.627Z,158.10
2019-04-27T01:28:59.171Z,151.70
2019-04-27T01:29:58.832Z,161.80
2019-04-27T01:30:58.870Z,153.60
2019-04-27T01:31:58.922Z,154.80
2019-04-27T01:35:05.344Z,168.30
2019-04-27T01:36:05.118Z,164.00
2019-04-27T01:37:05.089Z,168.70
2019-04-27T01:38:05.051Z,169.60
2019-04-27T01:39:05.030Z,176.70
2019-04-27T01:40:04.991Z,182.10
2019-04-27T01:41:04.964Z,197.40
2019-04-27T01:42:04.939Z,186.40
2019-04-27T01:43:04.907Z,192.90
2019-04-27T01:44:04.878Z,193.80
2019-04-27T01:45:04.851Z,186.00
2019-04-27T01:46:05.030Z,191.80
2019-04-27T01:47:04.996Z,182.60
2019-04-27T01:48:04.968Z,192.00
2019-04-27T01:49:04.737Z,188.30
2019-04-27T01:50:04.707Z,179.00
2019-04-27T01:51:04.684Z,187.60
2019-04-27T01:52:04.652Z,183.60
2019-04-27T01:53:04.622Z,178.50
2019-04-27T01:54:04.596Z,175.90
2019-04-27T01:55:04.570Z,185.10
2019-04-27T01:56:04.542Z,179.70
2019-04-27T01:57:04.518Z,188.70
2019-04-27T01:58:04.484Z,202.40
2019-04-27T01:59:04.454Z,189.40
2019-04-27T02:00:04.425Z,186.20
2019-04-27T02:01:04.403Z,193.40
2019-04-27T02:02:04.368Z,193.70
2019-04-27T02:03:04.346Z,193.20
2019-04-27T02:04:04.310Z,200.40
2019-04-27T02:05:04.285Z,201.30
2019-04-27T02:06:04.464Z,205.60
2019-04-27T02:07:04.226Z,209.10
2019-04-27T02:08:04.202Z,199.50
2019-04-27T02:09:04.170Z,203.70
2019-04-27T02:10:04.145Z,208.50
2019-04-27T02:11:04.114Z,199.10
2019-04-27T02:12:04.083Z,195.10
2019-04-27T02:13:04.057Z,195.10
2019-04-27T02:14:04.027Z,186.30
2019-04-27T02:15:03.999Z,185.50
2019-04-27T02:16:03.971Z,196.10
2019-04-27T02:17:04.144Z,188.80
2019-04-27T02:18:03.923Z,181.80
2019-04-27T02:19:03.886Z,188.50
2019-04-27T02:20:03.857Z,185.90
2019-04-27T02:21:03.830Z,183.80
2019-04-27T02:22:03.799Z,188.30
2019-04-27T02:23:03.779Z,196.50
2019-04-27T02:24:03.749Z,187.70
2019-04-27T02:25:03.725Z,192.00
2019-04-27T02:26:03.688Z,189.80
2019-04-27T02:27:03.663Z,194.30
2019-04-27T02:28:03.631Z,195.90
2019-04-27T02:29:03.604Z,192.70
2019-04-27T02:30:03.592Z,181.70
2019-04-27T02:31:03.577Z,188.70
2019-04-27T02:32:03.523Z,191.40
2019-04-27T02:33:03.498Z,190.60
2019-04-27T02:34:03.463Z,188.10
2019-04-27T02:35:03.446Z,169.00
2019-04-27T02:36:03.467Z,172.60
2019-04-27T02:37:03.377Z,172.10
2019-04-27T02:38:03.353Z,163.90
2019-04-27T02:39:03.322Z,174.50
2019-04-27T02:40:03.293Z,160.70
2019-04-27T02:41:03.268Z,163.10
2019-04-27T02:42:03.439Z,172.30
2019-04-27T02:43:03.208Z,163.80
2019-04-27T02:44:03.384Z,165.80
2019-04-27T02:45:03.356Z,154.90
2019-04-27T02:46:03.132Z,169.80
2019-04-27T02:47:03.097Z,156.40
2019-04-27T02:48:03.080Z,163.70
2019-04-27T02:49:06.324Z,157.80
2019-04-27T02:50:03.007Z,161.30
2019-04-27T02:51:02.981Z,160.00
2019-04-27T02:52:02.952Z,158.30
2019-04-27T02:53:03.355Z,164.70
2019-04-27T02:54:02.908Z,172.10
2019-04-27T02:55:02.869Z,168.60
2019-04-27T02:56:02.842Z,178.80
2019-04-27T02:57:02.813Z,187.40
2019-04-27T02:58:02.781Z,185.90
2019-04-27T02:59:02.754Z,185.60
2019-04-27T03:00:02.727Z,198.20
2019-04-27T03:01:02.706Z,206.30
2019-04-27T03:02:02.669Z,203.50
2019-04-27T03:03:02.641Z,200.40
2019-04-27T03:04:02.611Z,210.70
2019-04-27T03:05:02.589Z,205.90
2019-04-27T03:06:02.553Z,186.40
2019-04-27T03:07:02.533Z,208.70
2019-04-27T03:08:02.505Z,199.90
2019-04-27T03:09:02.478Z,209.60
2019-04-27T03:10:02.864Z,215.00
2019-04-27T03:11:02.414Z,209.80
2019-04-27T03:12:02.394Z,213.10
2019-04-27T03:13:02.365Z,224.10
2019-04-27T03:14:02.329Z,214.50
2019-04-27T03:15:02.302Z,224.10
2019-04-27T03:16:02.277Z,212.70
2019-04-27T03:17:02.247Z,215.00
2019-04-27T03:18:02.223Z,213.30
2019-04-27T03:19:13.369Z,206.80
2019-04-27T03:20:02.158Z,206.40
2019-04-27T03:21:02.133Z,200.10
2019-04-27T03:22:02.106Z,190.00
2019-04-27T03:23:02.086Z,181.00
2019-04-27T03:24:02.068Z,184.60
2019-04-27T03:25:02.017Z,178.00
2019-04-27T03:26:01.991Z,170.60
2019-04-27T03:27:01.964Z,165.20
2019-04-27T03:28:02.596Z,154.40
2019-04-27T03:29:01.913Z,152.20
2019-04-27T03:30:02.030Z,144.40
2019-04-27T03:31:02.922Z,146.90
2019-04-27T03:32:02.275Z,142.30
2019-04-27T03:33:03.360Z,144.90
2019-04-27T03:34:05.415Z,139.90
2019-04-27T03:35:03.069Z,143.80
2019-04-27T03:36:02.903Z,138.70
2019-04-27T03:37:01.677Z,143.60
2019-04-27T03:38:01.654Z,133.70
2019-04-27T03:39:01.638Z,129.20
2019-04-27T03:40:01.593Z,133.70
2019-04-27T03:41:01.564Z,140.80
2019-04-27T03:42:01.535Z,141.50
2019-04-27T03:43:01.509Z,148.90
2019-04-27T03:44:01.478Z,150.80
2019-04-27T03:45:01.476Z,150.30
2019-04-27T03:46:01.448Z,135.80
2019-04-27T03:47:01.393Z,144.20
2019-04-27T03:48:01.365Z,140.10
2019-04-27T03:49:01.339Z,134.40
2019-04-27T03:50:01.509Z,131.20
2019-04-27T03:51:01.484Z,136.90
2019-04-27T03:52:03.106Z,140.90
2019-04-27T03:53:01.296Z,129.70
2019-04-27T03:54:01.205Z,126.30
2019-04-27T03:55:01.163Z,124.90
2019-04-27T03:56:01.135Z,124.60
2019-04-27T03:57:02.463Z,126.70
2019-04-27T03:58:01.085Z,128.90
2019-04-27T03:59:01.052Z,134.00
2019-04-27T04:00:01.036Z,130.50
2019-04-27T04:01:00.994Z,130.30
2019-04-27T04:02:02.501Z,129.90
2019-04-27T04:03:00.936Z,128.20
2019-04-27T04:04:00.962Z,124.70
2019-04-27T04:05:00.897Z,121.80
2019-04-27T04:06:00.851Z,118.80
2019-04-27T04:07:00.832Z,125.20
2019-04-27T04:08:00.803Z,117.10
2019-04-27T04:09:00.765Z,118.00
2019-04-27T04:10:00.739Z,118.80
2019-04-27T04:11:00.709Z,117.90
2019-04-27T04:12:02.337Z,120.30
2019-04-27T04:13:01.549Z,126.90
2019-04-27T04:14:00.625Z,122.40
2019-04-27T04:15:00.609Z,116.90
2019-04-27T04:16:00.568Z,119.40
2019-04-27T04:17:02.914Z,121.10
2019-04-27T04:18:00.514Z,123.00
2019-04-27T04:19:01.143Z,128.30
2019-04-27T04:20:01.562Z,133.30
2019-04-27T04:21:00.623Z,131.10
2019-04-27T04:22:00.398Z,133.30
2019-04-27T04:23:03.407Z,137.00
2019-04-27T04:24:01.276Z,123.10
2019-04-27T04:25:00.315Z,133.30
2019-04-27T04:26:00.324Z,126.30
2019-04-27T04:27:00.262Z,134.70
2019-04-27T04:28:00.717Z,123.70
2019-04-27T04:29:00.202Z,132.70
2019-04-27T04:30:00.170Z,128.30
2019-04-27T04:31:00.651Z,128.00
2019-04-27T04:32:00.566Z,130.30
2019-04-27T04:33:00.173Z,122.60
2019-04-27T04:34:00.088Z,130.20
2019-04-27T04:35:01.320Z,129.40
2019-04-27T04:36:00.045Z,133.80
2019-04-27T04:37:00.617Z,150.20
2019-04-27T04:38:00.312Z,172.60
2019-04-27T04:39:00.626Z,171.70
2019-04-27T04:39:59.908Z,178.20
2019-04-27T04:40:59.864Z,193.50
2019-04-27T04:41:59.954Z,192.80
2019-04-27T04:43:00.358Z,188.40
2019-04-27T04:43:59.995Z,186.50
2019-04-27T04:45:00.476Z,192.30
2019-04-27T04:45:59.750Z,199.50
2019-04-27T04:47:00.506Z,197.40
2019-04-27T04:47:59.805Z,189.30
2019-04-27T04:49:00.338Z,201.60
2019-04-27T04:50:10.239Z,201.50
2019-04-27T04:51:00.051Z,198.20
2019-04-27T04:51:59.697Z,203.00
2019-04-27T04:53:00.019Z,204.20
2019-04-27T04:53:59.916Z,195.50
2019-04-27T04:55:02.464Z,189.60
2019-04-27T04:56:00.385Z,201.00
2019-04-27T04:56:59.587Z,188.70
2019-04-27T04:57:59.378Z,179.30
2019-04-27T04:58:59.985Z,174.40
2019-04-27T04:59:59.400Z,175.30
2019-04-27T05:01:01.417Z,177.40
2019-04-27T05:02:01.900Z,178.10
2019-04-27T05:02:59.566Z,177.00
2019-04-27T05:03:59.208Z,165.30
2019-04-27T05:04:59.180Z,170.70
2019-04-27T05:05:59.154Z,166.20
2019-04-27T05:06:59.354Z,165.40
2019-04-27T05:08:00.675Z,173.60
2019-04-27T05:08:59.567Z,161.20
2019-04-27T05:09:59.035Z,163.20
2019-04-27T05:10:59.725Z,161.90
2019-04-27T05:11:58.979Z,157.50
2019-04-27T05:12:59.169Z,148.40
2019-04-27T05:13:59.387Z,147.40
2019-04-27T05:14:59.185Z,148.00
2019-04-27T05:15:59.061Z,146.80
2019-04-27T05:16:59.299Z,129.70
2019-04-27T05:17:59.258Z,127.20
2019-04-27T05:18:59.384Z,128.30
2019-04-27T05:19:59.111Z,120.30
2019-04-27T05:20:58.727Z,110.70
2019-04-27T05:21:59.311Z,99.00
2019-04-27T05:22:59.430Z,93.70
2019-04-27T05:24:00.591Z,88.40
2019-04-27T05:24:59.254Z,83.90
2019-04-27T05:25:59.279Z,81.40
2019-04-27T05:26:59.154Z,76.20
2019-04-27T05:27:59.681Z,76.10
2019-04-27T05:28:59.282Z,72.80
2019-04-27T05:30:00.149Z,66.30
2019-04-27T05:30:58.685Z,67.30
2019-04-27T05:31:59.188Z,63.30
2019-04-27T05:32:58.665Z,59.70
2019-04-27T05:33:59.373Z,62.30
2019-04-27T05:34:59.605Z,58.20
2019-04-27T05:35:59.149Z,58.30
2019-04-27T05:36:59.348Z,58.10
2019-04-27T05:38:00.880Z,59.60
2019-04-27T05:38:59.729Z,61.00
2019-04-27T05:39:58.917Z,60.80
2019-04-27T05:40:58.670Z,58.50
2019-04-27T05:41:59.672Z,65.20
2019-04-27T05:42:58.568Z,65.60
2019-04-27T05:43:59.167Z,63.40
2019-04-27T05:44:59.090Z,64.60
2019-04-27T05:46:01.012Z,68.90
2019-04-27T05:46:58.796Z,71.00
2019-04-27T05:47:59.254Z,74.40
2019-04-27T05:49:01.628Z,75.10
2019-04-27T05:49:58.933Z,73.70
2019-04-27T05:51:01.635Z,73.80
2019-04-27T05:51:59.451Z,77.70
2019-04-27T05:52:59.628Z,77.00
2019-04-27T05:53:58.717Z,74.30
2019-04-27T05:54:58.976Z,65.80
2019-04-27T05:55:59.393Z,69.70
2019-04-27T05:56:59.223Z,64.50
2019-04-27T05:57:59.159Z,60.00
2019-04-27T05:59:00.252Z,57.40
2019-04-27T06:00:40.270Z,57.90
2019-04-27T06:05:12.199Z,53.40
2019-04-27T06:06:11.967Z,52.00
2019-04-27T06:55:14.692Z,41.60
2019-04-27T06:56:14.463Z,40.10
2019-04-27T06:57:14.640Z,41.40
2019-04-27T06:58:14.616Z,41.50
2019-04-27T06:59:14.593Z,40.30
2019-04-27T07:00:14.568Z,42.10
2019-04-27T08:09:46.567Z,20.50
2019-04-27T08:10:48.428Z,20.90
2019-04-27T08:11:46.316Z,22.30
2019-04-27T08:27:40.393Z,20.90
2019-04-27T08:28:36.535Z,17.90
2019-04-27T08:29:36.715Z,17.90
2019-04-27T08:30:37.104Z,21.20
2019-04-27T08:31:36.673Z,15.60
2019-04-27T08:32:36.470Z,18.60
2019-04-27T08:46:38.566Z,13.50
2019-04-27T08:48:33.346Z,14.50
2019-04-27T08:49:19.473Z,12.20
2019-04-27T08:50:19.453Z,9.30
2019-04-27T08:53:26.821Z,13.80
2019-04-27T08:54:26.799Z,12.70
2019-04-27T08:55:26.792Z,13.10
2019-04-27T08:56:26.763Z,10.10
2019-04-27T08:57:28.863Z,14.00
2019-04-27T08:58:26.518Z,11.40
2019-04-27T08:59:26.499Z,10.90
2019-04-27T09:00:26.680Z,11.80
2019-04-27T09:01:26.460Z,12.60
2019-04-27T09:02:38.923Z,11.40
2019-04-27T09:03:29.531Z,11.40
2019-04-27T09:15:44.931Z,8.10
2019-04-27T09:16:57.199Z,11.30
2019-04-27T09:17:44.687Z,9.60
2019-04-27T09:32:52.775Z,6.90
2019-04-27T09:40:59.339Z,7.60
2019-04-27T09:41:57.267Z,8.00
2019-04-27T09:42:59.293Z,7.60
2019-04-27T09:43:56.653Z,7.60
2019-04-27T09:50:36.159Z,6.20
2019-04-27T09:51:36.350Z,5.30
2019-04-27T10:05:18.874Z,3.40
2019-04-27T10:06:18.652Z,5.30
2019-04-27T10:07:18.636Z,4.40
2019-04-27T10:08:18.621Z,4.40
2019-04-27T10:09:18.592Z,6.90
2019-04-27T10:10:18.574Z,4.10
2019-04-27T10:11:18.556Z,4.60
2019-04-27T10:12:18.535Z,6.50
2019-04-27T10:45:49.933Z,5.50
2019-04-27T10:47:32.308Z,4.20
2019-04-27T10:48:32.103Z,5.30
2019-04-27T10:49:32.075Z,4.70
2019-04-27T11:31:31.248Z,2.80
2019-04-27T11:32:31.028Z,2.70
2019-04-27T11:33:31.008Z,4.30
2019-04-27T11:34:30.991Z,3.60
2019-04-27T11:35:30.977Z,4.30
2019-04-27T11:36:30.956Z,5.30
2019-04-27T11:45:17.508Z,3.90
2019-04-27T11:48:26.294Z,5.40
2019-04-27T11:49:25.808Z,5.40
2019-04-27T11:50:25.608Z,3.40
2019-04-27T11:54:14.193Z,3.20
2019-04-27T11:55:15.930Z,3.90
2019-04-27T11:56:13.955Z,5.00
2019-04-27T11:57:13.929Z,5.00
2019-04-27T11:58:13.909Z,3.30
2019-04-27T11:59:13.894Z,2.90
2019-04-27T12:00:13.874Z,3.70
2019-04-27T12:01:13.852Z,5.90
2019-04-27T12:02:15.598Z,3.70
2019-04-27T12:03:13.822Z,3.80
2019-04-27T12:04:13.797Z,4.10
2019-04-27T12:05:13.990Z,3.20
2019-04-27T12:11:10.741Z,3.10
2019-04-27T12:12:18.221Z,3.50
2019-04-27T12:14:35.498Z,4.50
2019-04-27T12:15:36.182Z,4.70
2019-04-27T13:10:17.580Z,3.70
2019-04-27T13:11:17.353Z,2.90
2019-04-27T13:12:59.929Z,5.10
2019-04-27T13:14:42.301Z,3.70
2019-04-27T13:15:42.083Z,3.80
2019-04-27T13:16:42.057Z,3.00
2019-04-27T13:19:07.027Z,5.00
2019-04-27T13:25:05.665Z,2.80
2019-04-27T13:26:03.537Z,4.80
2019-04-27T13:27:03.719Z,6.00
2019-04-27T13:29:31.099Z,11.70
2019-04-27T13:39:40.366Z,8.50
2019-04-27T18:49:30.110Z,10.70
2019-04-27T18:51:06.054Z,10.70
2019-04-27T18:52:06.557Z,11.30
2019-04-27T18:53:05.400Z,11.30
2019-04-27T18:54:05.361Z,9.20
2019-04-27T18:55:05.533Z,9.80
2019-04-27T18:56:05.624Z,10.50
2019-04-27T18:57:05.272Z,10.40
2019-04-27T18:58:05.240Z,9.30
2019-04-27T18:59:05.213Z,11.10
2019-04-27T19:00:05.192Z,9.70
2019-04-27T19:01:05.164Z,9.10
2019-04-27T19:02:05.127Z,9.50
2019-04-27T19:03:05.105Z,10.10
2019-04-27T19:04:05.072Z,11.80
2019-04-27T19:05:05.051Z,8.90
2019-04-27T19:06:05.010Z,9.50
2019-04-27T19:07:04.983Z,9.00
2019-04-27T19:08:04.956Z,11.90
2019-04-27T19:09:04.924Z,9.90
2019-04-27T19:10:05.013Z,11.10
2019-04-27T19:11:05.169Z,9.70
2019-04-27T19:12:05.039Z,10.50
2019-04-27T19:13:05.015Z,8.80
2019-04-27T19:14:04.779Z,9.40
2019-04-27T19:15:04.957Z,10.00
2019-04-27T19:16:04.725Z,10.80
2019-04-27T19:17:04.700Z,8.60
2019-04-27T19:18:04.670Z,12.40
2019-04-27T19:19:04.636Z,9.30
2019-04-27T19:20:04.607Z,9.80
2019-04-27T19:21:04.782Z,10.80
2019-04-27T19:22:05.171Z,10.20
2019-04-27T19:23:04.724Z,13.30
2019-04-27T19:24:47.083Z,10.50
2019-04-27T19:27:17.887Z,12.20
2019-04-27T19:29:38.161Z,10.40
2019-04-27T19:30:36.343Z,11.20
2019-04-27T19:31:38.191Z,13.20
2019-04-27T19:32:36.287Z,12.80
2019-04-27T19:33:36.256Z,10.80
2019-04-27T19:34:36.232Z,9.70
2019-04-27T19:35:37.867Z,11.00
2019-04-27T19:36:36.171Z,10.80
2019-04-27T19:37:36.140Z,11.90
2019-04-27T19:38:36.111Z,11.90
2019-04-27T19:39:36.082Z,9.50
2019-04-27T19:40:37.890Z,12.90
2019-04-27T19:46:32.947Z,10.90
2019-04-27T19:48:15.305Z,13.70
2019-04-27T19:49:57.654Z,11.50
2019-04-27T19:50:57.424Z,12.30
2019-04-27T19:51:58.808Z,11.10
2019-04-27T19:52:58.725Z,12.60
2019-04-27T19:53:58.168Z,10.50
2019-04-27T19:54:58.527Z,13.80
2019-04-27T19:55:58.086Z,9.90
2019-04-27T19:56:59.360Z,10.20
2019-04-27T19:57:59.472Z,9.80
2019-04-27T19:58:58.191Z,11.60
2019-04-27T19:59:58.948Z,11.80
2019-04-27T20:01:09.067Z,10.70
2019-04-27T20:01:58.379Z,11.50
2019-04-27T20:02:57.071Z,8.80
2019-04-27T20:03:57.933Z,10.00
2019-04-27T20:04:57.014Z,13.40
2019-04-27T20:05:56.985Z,12.60
2019-04-27T20:06:56.957Z,12.00
2019-04-27T20:19:15.326Z,9.40
2019-04-27T20:20:15.095Z,12.20
2019-04-27T20:21:15.063Z,12.00
2019-04-27T20:22:15.037Z,11.80
2019-04-27T20:23:15.008Z,10.50
2019-04-27T20:24:14.975Z,13.60
2019-04-27T20:25:14.947Z,13.20
2019-04-27T20:26:14.915Z,10.90
2019-04-27T20:27:14.891Z,14.00
2019-04-27T20:28:14.858Z,12.90
2019-04-27T20:29:14.830Z,11.60
2019-04-27T20:30:14.803Z,10.70
2019-04-27T20:31:14.769Z,9.80
2019-04-27T20:32:14.746Z,9.00
2019-04-27T20:33:14.712Z,11.50
2019-04-27T20:34:14.682Z,10.00
2019-04-27T20:35:14.659Z,10.40
2019-04-27T20:36:14.625Z,11.30
2019-04-27T20:37:14.598Z,10.30
2019-04-27T20:38:14.566Z,9.50
2019-04-27T20:39:14.538Z,14.50
2019-04-27T20:40:14.507Z,11.40
2019-04-27T20:41:14.482Z,11.00
2019-04-27T20:42:14.449Z,11.70
2019-04-27T20:43:14.421Z,9.70
2019-04-27T20:44:14.396Z,11.50
2019-04-27T20:45:14.369Z,7.70
2019-04-27T20:46:14.338Z,9.90
2019-04-27T20:47:14.304Z,8.60
2019-04-27T20:48:14.283Z,8.90
2019-04-27T20:49:14.252Z,7.90
2019-04-27T20:50:14.217Z,9.40
2019-04-27T20:51:14.188Z,9.40
2019-04-27T20:52:14.160Z,8.50
2019-04-27T20:53:14.130Z,8.70
2019-04-27T20:54:14.103Z,10.40
2019-04-27T20:55:14.071Z,9.70
2019-04-27T20:56:14.044Z,7.20
2019-04-27T20:57:14.015Z,9.30
2019-04-27T20:58:13.984Z,8.50
2019-04-27T20:59:13.955Z,13.20
2019-04-27T21:00:13.932Z,10.00
2019-04-27T21:01:13.900Z,9.00
2019-04-27T21:02:16.543Z,9.50
2019-04-27T21:03:13.841Z,10.00
2019-04-27T21:04:13.810Z,9.40
2019-04-27T21:05:13.783Z,9.00
2019-04-27T21:06:13.753Z,7.60
2019-04-27T21:07:13.730Z,8.90
2019-04-27T21:08:13.695Z,10.40
2019-04-27T21:09:13.665Z,10.50
2019-04-27T21:10:13.637Z,7.80
2019-04-27T21:11:13.610Z,8.30
2019-04-27T21:12:13.578Z,11.00
2019-04-27T21:13:13.550Z,8.00
2019-04-27T21:14:13.519Z,7.50
2019-04-27T21:15:13.496Z,7.10
2019-04-27T21:16:13.469Z,7.70
2019-04-27T21:17:13.436Z,9.10
2019-04-27T21:18:13.406Z,8.40
2019-04-27T21:19:13.374Z,8.10
2019-04-27T21:20:13.372Z,9.00
2019-04-27T21:21:13.317Z,9.70
2019-04-27T21:22:13.288Z,9.60
2019-04-27T21:23:13.257Z,6.60
2019-04-27T21:24:13.229Z,7.20
2019-04-27T21:25:13.202Z,8.20
2019-04-27T21:26:13.171Z,8.80
2019-04-27T21:27:13.145Z,8.20
2019-04-27T21:28:18.109Z,10.10
2019-04-27T21:29:13.094Z,8.50
2019-04-27T21:30:13.056Z,8.40
2019-04-27T21:31:13.027Z,10.80
2019-04-27T21:32:12.997Z,12.20
2019-04-27T21:33:12.970Z,10.00
2019-04-27T21:34:12.950Z,11.30
2019-04-27T21:35:12.913Z,10.80
2019-04-27T21:36:12.882Z,15.40
2019-04-27T21:37:12.856Z,12.50
2019-04-27T21:38:12.823Z,12.90
2019-04-27T21:39:12.804Z,12.00
2019-04-27T21:40:12.767Z,9.80
2019-04-27T21:41:12.735Z,9.80
2019-04-27T21:42:12.706Z,9.20
2019-04-27T21:43:12.685Z,14.70
2019-04-27T21:44:12.649Z,11.10
2019-04-27T21:45:12.619Z,10.90
2019-04-27T21:46:12.591Z,12.20
2019-04-27T21:47:12.564Z,11.70
2019-04-27T21:48:12.535Z,9.60
2019-04-27T21:49:12.764Z,10.40
2019-04-27T21:50:12.473Z,10.30
2019-04-27T21:51:12.450Z,13.60
2019-04-27T21:52:14.511Z,12.10
2019-04-27T21:53:12.388Z,9.20
2019-04-27T21:54:12.364Z,11.10
2019-04-27T21:55:12.333Z,11.40
2019-04-27T21:56:12.301Z,11.20
2019-04-27T21:57:12.788Z,12.70
2019-04-27T21:58:12.245Z,11.10
2019-04-27T21:59:12.215Z,12.50
2019-04-27T22:00:12.187Z,19.20
2019-04-27T22:01:13.187Z,11.10
2019-04-27T22:02:12.204Z,10.80
2019-04-27T22:03:12.098Z,9.40
2019-04-27T22:04:12.070Z,10.60
2019-04-27T22:05:12.297Z,11.70
2019-04-27T22:06:12.013Z,10.70
2019-04-27T22:07:11.988Z,10.80
2019-04-27T22:08:11.980Z,11.70
2019-04-27T22:09:11.926Z,10.40
2019-04-27T22:10:11.897Z,12.90
2019-04-27T22:11:11.899Z,12.00
2019-04-27T22:12:11.841Z,10.80
2019-04-27T22:13:11.815Z,10.30
2019-04-27T22:14:11.920Z,12.10
2019-04-27T22:15:11.752Z,9.80
2019-04-27T22:16:13.128Z,13.30
2019-04-27T22:17:11.695Z,13.70
2019-04-27T22:18:11.666Z,11.00
2019-04-27T22:19:12.129Z,13.20
2019-04-27T22:20:11.837Z,10.00
2019-04-27T22:21:11.677Z,15.50
2019-04-27T22:22:12.600Z,11.10
2019-04-27T22:23:11.523Z,13.20
2019-04-27T22:24:11.494Z,10.70
2019-04-27T22:25:11.717Z,12.40
2019-04-27T22:26:11.434Z,14.50
2019-04-27T22:27:11.406Z,10.20
2019-04-27T22:28:11.820Z,10.30
2019-04-27T22:29:12.047Z,13.80
2019-04-27T22:30:11.326Z,12.30
2019-04-27T22:31:12.569Z,13.90
2019-04-27T22:32:11.260Z,13.40
2019-04-27T22:33:11.351Z,11.20
2019-04-27T22:34:11.202Z,10.60
2019-04-27T22:35:11.175Z,11.90
2019-04-27T22:36:11.146Z,12.60
2019-04-27T22:37:11.249Z,11.00
2019-04-27T22:38:11.925Z,13.50
2019-04-27T22:39:11.710Z,12.40
2019-04-27T22:40:11.980Z,11.60
2019-04-27T22:41:13.001Z,11.10
2019-04-27T22:42:12.154Z,16.90
2019-04-27T22:43:11.845Z,14.50
2019-04-27T22:44:11.490Z,11.30
2019-04-27T22:45:10.889Z,12.40
2019-04-27T22:46:11.383Z,12.30
2019-04-27T22:47:11.438Z,13.20
2019-04-27T22:48:11.313Z,12.60
2019-04-27T22:49:11.024Z,15.90
2019-04-27T22:50:12.366Z,15.60
2019-04-27T22:51:11.701Z,11.50
2019-04-27T22:52:11.762Z,14.90
2019-04-27T22:53:10.654Z,16.20
2019-04-27T22:54:11.590Z,12.20
2019-04-27T22:55:11.794Z,13.50
2019-04-27T22:56:11.163Z,11.00
2019-04-27T22:57:11.346Z,13.20
2019-04-27T22:58:11.737Z,11.80
2019-04-27T22:59:11.445Z,15.80
2019-04-27T23:00:11.602Z,12.00
2019-04-27T23:01:10.430Z,13.10
2019-04-27T23:02:11.477Z,15.30
2019-04-27T23:03:10.998Z,16.40
2019-04-27T23:04:11.930Z,18.40
2019-04-27T23:05:10.845Z,15.50
2019-04-27T23:06:11.427Z,13.70
2019-04-27T23:07:11.090Z,16.50
2019-04-27T23:08:10.223Z,15.50
2019-04-27T23:09:11.739Z,13.90
2019-04-27T23:10:11.270Z,14.40
2019-04-27T23:11:10.883Z,16.80
2019-04-27T23:12:11.865Z,18.20
2019-04-27T23:13:11.233Z,15.50
2019-04-27T23:14:11.064Z,15.90
2019-04-27T23:15:10.020Z,15.90
2019-04-27T23:16:11.594Z,16.80
2019-04-27T23:17:11.501Z,21.60
2019-04-27T23:18:09.934Z,17.40
2019-04-27T23:19:10.876Z,17.60
2019-04-27T23:20:11.591Z,16.50
2019-04-27T23:21:11.677Z,19.10
2019-04-27T23:22:11.057Z,17.90
2019-04-27T23:23:11.376Z,19.60
2019-04-27T23:24:09.762Z,19.00
2019-04-27T23:25:11.248Z,17.70
2019-04-27T23:26:09.703Z,18.30
2019-04-27T23:27:11.074Z,17.90
2019-04-27T23:28:09.651Z,21.20
2019-04-27T23:29:13.648Z,21.30
2019-04-27T23:30:11.208Z,19.00
2019-04-27T23:31:10.857Z,20.20
2019-04-27T23:32:09.532Z,20.90
2019-04-27T23:33:11.137Z,20.50
2019-04-27T23:34:09.472Z,21.10
2019-04-27T23:35:09.449Z,24.00
2019-04-27T23:36:09.416Z,20.90
2019-04-27T23:37:09.389Z,22.80
2019-04-27T23:38:17.576Z,22.80
2019-04-27T23:39:09.330Z,22.50
2019-04-27T23:40:11.153Z,23.90
2019-04-27T23:41:09.272Z,20.50
2019-04-27T23:42:09.241Z,25.10
2019-04-27T23:43:09.214Z,19.90
2019-04-27T23:44:09.193Z,19.50
2019-04-27T23:45:09.159Z,23.80
2019-04-27T23:46:09.127Z,20.70
2019-04-27T23:47:09.098Z,16.60
2019-04-27T23:48:12.211Z,21.30
2019-04-27T23:49:09.041Z,21.00
2019-04-27T23:50:10.828Z,25.30
2019-04-27T23:51:08.984Z,21.10
2019-04-27T23:52:08.964Z,19.80
2019-04-27T23:53:08.926Z,20.10
2019-04-27T23:54:08.906Z,19.00
2019-04-27T23:55:08.869Z,22.80
2019-04-27T23:56:08.843Z,21.00
2019-04-27T23:57:08.810Z,20.40
2019-04-27T23:58:08.781Z,19.10
2019-04-27T23:59:08.753Z,19.80
